Pagrindinis puslapis
METAR-TAF:

METAR-TAF

Oro uostai :

Phrė, Tailandas

platuma: 18-10N, ilguma: 100-10E, Aukštis: 161 m

Dabartinis oras

Ataskaita buvo paskelbta 23 minutes, ne 10:00 UTC
Vėjas 2 kt nuo kintamojo kryptimis
Temperatūra 29°C
Drėgmė 45%
Slėgis 1012 hPa
Matomumas: 8000 m
Mažai debesys ne aukštis 2500 ft

METAR: VTCP 171000Z VRB02KT 8000 FEW025 29/16 Q1012 NOSIG

Laikas: 17:23 (10:23 UTC)

Prognozė

Ataskaita buvo paskelbta 5 valandos ir 23 minutes, ne 05:00 UTC
Prognozė galioja nuo 17 metu 06 UTC su 18 metu 06 UTC
Vėjas 5 kt iš Pietų
Matomumas: 7000 m
Mažai debesys ne aukštis 3000 ft
Tapsmas
nuo 17 metu 23 UTC su 18 metu 01 UTC
Vėjas kt iš Šiaurės
Matomumas: 2000 m
rūkana
Tapsmas
nuo 18 metu 03 UTC su 18 metu 05 UTC
Vėjas 5 kt iš Šiaurės/Šiaurės Rytų
Matomumas 10 km arba daugiau
Mažai debesys ne aukštis 2500 ft

TAF: VTCP 170500Z 1706/1806 18005KT 7000 FEW030 BECMG 1723/1801 00000KT 2000 BR BECMG 1803/1805 02005KT 9999 NSW FEW025

Orai ataskaitas ir orų prognozės (METAR, TAF).

turimą stotys yra geltonos ir raudonos taškus žemėlapyje.

Perkelti pele per norėdami pamatyti stoties vardą.

Tada spustelėkite, norėdami matyti oro stebėjimo ir prognozės.

Norėdami pakeisti žemėlapį: spustelėkite ant žalios mygtukų su juodo kryžiaus žemyn,; žalią mygtuką su brūkšneliu, jei norite nutolinti; arba žalių rodyklių gretimoms žemėlapius.


METAR-TAF: